createdAt,value
2023-05-06T00:02:06.268Z,91.63
2023-05-06T00:04:33.368Z,91.31
2023-05-06T00:06:59.961Z,91.43
2023-05-06T00:09:26.556Z,91.45
2023-05-06T00:11:53.000Z,91.63
2023-05-06T00:14:19.637Z,91.77
2023-05-06T00:16:46.043Z,91.83
2023-05-06T00:19:12.541Z,92.17
2023-05-06T00:21:39.114Z,92.86
2023-05-06T00:24:05.885Z,93.67
2023-05-06T00:26:32.442Z,93.90
2023-05-06T00:28:59.022Z,93.52
2023-05-06T00:31:25.531Z,92.89
2023-05-06T00:33:51.998Z,92.73
2023-05-06T00:36:18.686Z,92.92
2023-05-06T00:38:45.210Z,92.04
2023-05-06T00:41:11.559Z,92.72
2023-05-06T00:43:38.123Z,92.74
2023-05-06T00:46:05.461Z,92.76
2023-05-06T00:48:32.312Z,92.97
2023-05-06T00:50:58.887Z,92.72
2023-05-06T00:53:25.313Z,92.36
2023-05-06T00:55:51.918Z,92.32
2023-05-06T00:58:20.142Z,92.43
2023-05-06T01:00:46.936Z,92.71
2023-05-06T01:03:13.458Z,92.45
2023-05-06T01:06:01.731Z,92.67
2023-05-06T01:09:08.723Z,92.82
2023-05-06T01:11:45.852Z,92.62
2023-05-06T01:14:26.340Z,92.96
2023-05-06T01:16:55.096Z,92.61
2023-05-06T01:19:42.046Z,92.32
2023-05-06T01:22:10.494Z,92.17
2023-05-06T01:24:41.825Z,91.79
2023-05-06T01:27:09.409Z,91.84
2023-05-06T01:29:37.907Z,91.86
2023-05-06T01:32:19.232Z,92.18
2023-05-06T01:34:49.512Z,92.28
2023-05-06T01:37:34.653Z,92.50
2023-05-06T01:40:04.082Z,92.41
2023-05-06T01:42:32.375Z,92.26
2023-05-06T01:45:03.037Z,92.42
2023-05-06T01:47:30.246Z,92.32
2023-05-06T01:49:57.676Z,92.10
2023-05-06T01:52:26.006Z,92.11
2023-05-06T01:54:52.388Z,91.84
2023-05-06T01:57:18.880Z,92.17
2023-05-06T01:59:45.239Z,92.14
2023-05-06T02:02:11.668Z,92.04
2023-05-06T02:04:38.080Z,92.08
2023-05-06T02:07:04.908Z,92.84
2023-05-06T02:09:31.437Z,92.84
2023-05-06T02:11:57.881Z,93.23
2023-05-06T02:14:24.525Z,93.81
2023-05-06T02:16:51.217Z,93.04
2023-05-06T02:19:17.877Z,92.94
2023-05-06T02:21:44.274Z,93.02
2023-05-06T02:24:10.678Z,92.98
2023-05-06T02:26:37.196Z,93.06
2023-05-06T02:29:03.816Z,93.32
2023-05-06T02:31:30.795Z,92.65
2023-05-06T02:33:57.492Z,93.02
2023-05-06T02:36:24.092Z,93.27
2023-05-06T02:38:50.566Z,92.73
2023-05-06T02:41:17.140Z,92.80
2023-05-06T02:43:43.807Z,92.32
2023-05-06T02:46:10.508Z,92.33
2023-05-06T02:48:36.928Z,92.29
2023-05-06T02:51:03.488Z,92.29
2023-05-06T02:53:29.991Z,92.75
2023-05-06T02:55:56.505Z,92.15
2023-05-06T02:58:23.094Z,92.16
2023-05-06T03:00:49.649Z,91.64
2023-05-06T03:03:17.517Z,92.07
2023-05-06T03:05:44.001Z,91.97
2023-05-06T03:08:10.555Z,91.88
2023-05-06T03:10:36.964Z,91.49
2023-05-06T03:13:03.578Z,91.29
2023-05-06T03:15:30.295Z,91.31
2023-05-06T03:17:56.928Z,91.26
2023-05-06T03:20:23.478Z,91.45
2023-05-06T03:22:50.193Z,91.23
2023-05-06T03:25:16.610Z,91.24
2023-05-06T03:27:43.043Z,91.42
2023-05-06T03:30:10.387Z,91.38
2023-05-06T03:32:37.868Z,91.36
2023-05-06T03:35:04.787Z,92.06
2023-05-06T03:37:31.246Z,91.48
2023-05-06T03:39:57.605Z,92.05
2023-05-06T03:42:24.239Z,92.44
2023-05-06T03:44:50.670Z,92.44
2023-05-06T03:47:17.272Z,92.87
2023-05-06T03:49:43.653Z,92.96
2023-05-06T03:52:10.115Z,93.53
2023-05-06T03:54:36.833Z,92.93
2023-05-06T03:57:03.349Z,93.18
2023-05-06T03:59:29.925Z,93.32
2023-05-06T04:01:56.587Z,92.95
2023-05-06T04:04:23.248Z,93.45
2023-05-06T04:06:49.615Z,93.05
2023-05-06T04:09:16.098Z,93.21
2023-05-06T04:11:42.543Z,92.92
2023-05-06T04:14:08.962Z,93.32
2023-05-06T04:16:36.038Z,93.10
2023-05-06T04:19:06.250Z,93.00
2023-05-06T04:21:33.211Z,92.92
2023-05-06T04:23:59.635Z,92.42
2023-05-06T04:26:26.152Z,92.67
2023-05-06T04:28:52.661Z,92.84
2023-05-06T04:31:19.311Z,92.64
2023-05-06T04:33:45.873Z,92.69
2023-05-06T04:36:12.926Z,93.00
2023-05-06T04:38:39.332Z,92.46
2023-05-06T04:41:05.759Z,92.67
2023-05-06T04:43:32.951Z,93.27
2023-05-06T04:45:59.525Z,93.39
2023-05-06T04:48:26.305Z,93.30
2023-05-06T04:50:52.963Z,92.76
2023-05-06T04:53:19.396Z,92.91
2023-05-06T04:55:45.819Z,92.65
2023-05-06T04:58:12.263Z,92.89
2023-05-06T05:00:38.898Z,92.87
2023-05-06T05:03:05.606Z,92.65
2023-05-06T05:05:33.204Z,92.58
2023-05-06T05:07:59.911Z,92.70
2023-05-06T05:10:26.476Z,92.47
2023-05-06T05:12:52.946Z,92.53
2023-05-06T05:15:21.033Z,92.04
2023-05-06T05:17:47.913Z,91.90
2023-05-06T05:20:14.434Z,91.37
2023-05-06T05:22:41.238Z,91.44
2023-05-06T05:25:08.609Z,91.29
2023-05-06T05:27:35.363Z,90.46
2023-05-06T05:30:01.827Z,90.27
2023-05-06T05:32:28.359Z,90.19
2023-05-06T05:34:55.035Z,90.00
2023-05-06T05:37:21.530Z,89.94
2023-05-06T05:39:48.155Z,90.12
2023-05-06T05:42:14.608Z,90.55
2023-05-06T05:44:41.050Z,90.98
2023-05-06T05:47:07.482Z,91.23
2023-05-06T05:49:33.938Z,92.03
2023-05-06T05:52:00.439Z,92.65
2023-05-06T05:54:27.077Z,92.50
2023-05-06T05:56:53.671Z,92.87
2023-05-06T05:59:20.037Z,92.63
2023-05-06T06:01:46.457Z,92.67
2023-05-06T06:04:13.019Z,93.00
2023-05-06T06:06:39.501Z,93.15
2023-05-06T06:09:06.512Z,93.00
2023-05-06T06:11:33.213Z,93.09
2023-05-06T06:13:59.648Z,93.25
2023-05-06T06:16:26.129Z,93.24
2023-05-06T06:18:53.724Z,93.61
2023-05-06T06:21:20.341Z,94.63
2023-05-06T06:23:47.113Z,94.89
2023-05-06T06:26:13.556Z,95.03
2023-05-06T06:28:40.061Z,94.81
2023-05-06T06:31:06.551Z,94.93
2023-05-06T06:33:33.075Z,94.98
2023-05-06T06:35:59.754Z,95.51
2023-05-06T06:38:26.202Z,95.67
2023-05-06T06:40:52.778Z,95.43
2023-05-06T06:43:20.093Z,95.79
2023-05-06T06:45:50.008Z,95.98
2023-05-06T06:48:16.954Z,96.14
2023-05-06T06:50:43.748Z,96.14
2023-05-06T06:53:10.457Z,95.94
2023-05-06T06:55:36.844Z,96.01
2023-05-06T06:58:03.285Z,96.06
2023-05-06T07:00:29.709Z,95.76
2023-05-06T07:02:56.220Z,96.11
2023-05-06T07:05:22.957Z,96.09
2023-05-06T07:07:49.330Z,95.60
2023-05-06T07:10:15.910Z,95.41
2023-05-06T07:12:42.375Z,94.75
2023-05-06T07:15:09.436Z,94.06
2023-05-06T07:17:36.237Z,94.16
2023-05-06T07:20:02.836Z,92.76
2023-05-06T07:22:29.491Z,91.64
2023-05-06T07:24:55.980Z,90.15
2023-05-06T07:27:24.082Z,86.17
2023-05-06T07:29:50.890Z,83.72
2023-05-06T07:32:17.615Z,83.23
2023-05-06T07:34:44.217Z,83.82
2023-05-06T07:37:10.649Z,83.60
2023-05-06T07:39:37.128Z,83.92
2023-05-06T07:42:03.622Z,83.75
2023-05-06T07:44:29.974Z,84.82
2023-05-06T07:46:56.762Z,84.31
2023-05-06T07:49:24.110Z,84.15
2023-05-06T07:51:50.594Z,83.55
2023-05-06T07:54:17.082Z,77.12
2023-05-06T07:56:44.082Z,72.02
2023-05-06T07:59:10.608Z,74.01
2023-05-06T08:01:37.288Z,74.42
2023-05-06T08:04:04.109Z,73.75
2023-05-06T08:06:30.745Z,72.30
2023-05-06T08:08:57.510Z,72.45
2023-05-06T08:11:23.952Z,75.39
2023-05-06T08:13:50.549Z,73.58
2023-05-06T08:16:17.479Z,73.33
2023-05-06T08:18:43.903Z,72.56
2023-05-06T08:21:10.964Z,70.67
2023-05-06T08:23:37.800Z,69.35
2023-05-06T08:26:04.528Z,71.73
2023-05-06T08:28:31.513Z,69.02
2023-05-06T08:30:58.079Z,65.09
2023-05-06T08:33:24.453Z,63.68
2023-05-06T08:35:51.018Z,63.17
2023-05-06T08:38:17.418Z,64.17
2023-05-06T08:40:44.896Z,65.16
2023-05-06T08:43:13.566Z,63.88
2023-05-06T08:45:41.803Z,64.29
2023-05-06T08:48:09.222Z,64.11
2023-05-06T08:50:40.835Z,64.75
2023-05-06T08:53:07.549Z,62.06
2023-05-06T08:55:34.165Z,63.11
2023-05-06T08:58:01.133Z,65.29
2023-05-06T09:00:27.648Z,66.79
2023-05-06T09:02:54.323Z,62.48
2023-05-06T09:05:21.114Z,63.12
2023-05-06T09:07:47.747Z,63.61
2023-05-06T09:10:14.713Z,63.67
2023-05-06T09:12:41.508Z,64.37
2023-05-06T09:15:09.720Z,63.34
2023-05-06T09:17:36.795Z,63.76
2023-05-06T09:20:03.841Z,64.53
2023-05-06T09:22:31.333Z,61.72
2023-05-06T09:24:58.789Z,61.07
2023-05-06T09:27:31.274Z,59.43
2023-05-06T09:30:05.271Z,57.11
2023-05-06T09:32:32.424Z,57.16
2023-05-06T09:34:58.876Z,57.77
2023-05-06T09:37:28.256Z,57.04
2023-05-06T09:39:56.533Z,58.69
2023-05-06T09:42:27.837Z,61.41
2023-05-06T09:44:58.162Z,56.52
2023-05-06T09:47:31.165Z,61.18
2023-05-06T09:50:04.519Z,57.73
2023-05-06T09:52:31.684Z,57.70
2023-05-06T09:54:59.271Z,58.22
2023-05-06T09:57:26.022Z,58.29
2023-05-06T09:59:54.197Z,56.47
2023-05-06T10:02:23.604Z,57.31
2023-05-06T10:04:51.151Z,56.95
2023-05-06T10:07:23.476Z,56.03
2023-05-06T10:09:51.402Z,57.16
2023-05-06T10:12:20.117Z,54.96
2023-05-06T10:14:47.425Z,58.32
2023-05-06T10:17:14.334Z,55.21
2023-05-06T10:19:45.003Z,53.73
2023-05-06T10:22:30.402Z,55.58
2023-05-06T10:25:05.752Z,52.80
2023-05-06T10:27:41.129Z,51.31
2023-05-06T10:30:10.318Z,54.20
2023-05-06T10:32:41.921Z,52.87
2023-05-06T10:35:20.439Z,52.07
2023-05-06T10:37:49.074Z,53.05
2023-05-06T10:40:15.846Z,54.26
2023-05-06T10:42:42.343Z,49.92
2023-05-06T10:45:19.544Z,51.86
2023-05-06T10:47:58.567Z,50.64
2023-05-06T10:50:39.171Z,49.66
2023-05-06T10:53:11.831Z,48.65
2023-05-06T10:55:38.436Z,50.91
2023-05-06T10:58:19.006Z,49.46
2023-05-06T11:00:55.565Z,49.72
2023-05-06T11:03:23.840Z,49.57
2023-05-06T11:05:52.090Z,48.31
2023-05-06T11:08:23.608Z,46.74
2023-05-06T11:10:50.131Z,48.49
2023-05-06T11:13:27.547Z,46.89
2023-05-06T11:15:58.291Z,48.64
2023-05-06T11:18:24.675Z,51.78
2023-05-06T11:21:12.586Z,50.38
2023-05-06T11:23:42.149Z,47.82
2023-05-06T11:26:09.509Z,49.14
2023-05-06T11:28:36.250Z,50.40
2023-05-06T11:31:03.182Z,46.93
2023-05-06T11:33:34.143Z,47.32
2023-05-06T11:36:01.622Z,47.99
2023-05-06T11:38:49.610Z,47.74
2023-05-06T11:41:17.240Z,49.40
2023-05-06T11:43:53.672Z,49.00
2023-05-06T11:46:21.961Z,49.89
2023-05-06T11:48:48.815Z,49.85
2023-05-06T11:51:16.270Z,51.77
2023-05-06T11:53:42.879Z,50.79
2023-05-06T11:56:09.321Z,48.70
2023-05-06T11:58:36.213Z,47.53
2023-05-06T12:01:04.445Z,45.85
2023-05-06T12:03:32.803Z,46.25
2023-05-06T12:06:00.204Z,47.31
2023-05-06T12:08:34.965Z,46.44
2023-05-06T12:11:03.760Z,46.00
2023-05-06T12:13:30.855Z,47.33
2023-05-06T12:16:01.540Z,47.77
2023-05-06T12:18:28.809Z,48.20
2023-05-06T12:21:00.581Z,46.20
2023-05-06T12:23:27.220Z,45.93
2023-05-06T12:26:02.631Z,47.85
2023-05-06T12:28:30.886Z,44.85
2023-05-06T12:30:57.380Z,47.23
2023-05-06T12:33:23.815Z,44.60
2023-05-06T12:35:51.630Z,46.56
2023-05-06T12:38:18.307Z,44.99
2023-05-06T12:40:52.685Z,47.06
2023-05-06T12:43:19.212Z,48.39
2023-05-06T12:46:05.910Z,48.82
2023-05-06T12:48:32.507Z,49.23
2023-05-06T12:50:58.988Z,48.05
2023-05-06T12:53:34.136Z,46.92
2023-05-06T12:56:00.936Z,47.46
2023-05-06T12:58:27.411Z,45.91
2023-05-06T13:00:53.973Z,46.14
2023-05-06T13:03:21.275Z,47.75
2023-05-06T13:05:50.108Z,48.27
2023-05-06T13:08:16.639Z,47.07
2023-05-06T13:10:43.241Z,47.62
2023-05-06T13:13:09.675Z,46.58
2023-05-06T13:15:36.378Z,45.46
2023-05-06T13:18:03.315Z,46.68
2023-05-06T13:20:30.443Z,47.38
2023-05-06T13:22:56.905Z,46.87
2023-05-06T13:25:23.409Z,46.85
2023-05-06T13:27:49.947Z,45.68
2023-05-06T13:30:17.030Z,44.66
2023-05-06T13:32:43.600Z,44.83
2023-05-06T13:35:10.467Z,43.10
2023-05-06T13:37:37.101Z,45.26
2023-05-06T13:40:04.862Z,44.89
2023-05-06T13:42:31.258Z,44.35
2023-05-06T13:44:57.671Z,42.80
2023-05-06T13:47:24.305Z,42.80
2023-05-06T13:49:51.176Z,41.79
2023-05-06T13:52:17.648Z,42.15
2023-05-06T13:54:44.920Z,41.53
2023-05-06T13:57:11.507Z,42.15
2023-05-06T13:59:37.897Z,41.62
2023-05-06T14:02:08.212Z,43.57
2023-05-06T14:04:36.184Z,45.09
2023-05-06T14:07:02.700Z,42.60
2023-05-06T14:09:29.218Z,42.00
2023-05-06T14:11:55.777Z,42.37
2023-05-06T14:14:22.184Z,43.36
2023-05-06T14:16:48.634Z,42.86
2023-05-06T14:19:15.125Z,43.74
2023-05-06T14:21:41.573Z,40.64
2023-05-06T14:24:08.368Z,41.64
2023-05-06T14:26:34.825Z,41.40
2023-05-06T14:29:01.375Z,41.74
2023-05-06T14:31:29.522Z,42.33
2023-05-06T14:33:56.630Z,42.08
2023-05-06T14:36:29.572Z,44.77
2023-05-06T14:38:56.168Z,41.45
2023-05-06T14:41:22.798Z,42.70
2023-05-06T14:43:49.326Z,41.44
2023-05-06T14:46:16.328Z,40.05
2023-05-06T14:48:43.429Z,40.84
2023-05-06T14:51:10.077Z,40.27
2023-05-06T14:53:36.612Z,42.30
2023-05-06T14:56:03.247Z,42.20
2023-05-06T14:58:29.830Z,42.41
2023-05-06T15:00:57.110Z,43.99
2023-05-06T15:03:23.648Z,44.13
2023-05-06T15:05:51.068Z,43.39
2023-05-06T15:08:17.658Z,43.91
2023-05-06T15:10:44.416Z,44.67
2023-05-06T15:13:11.005Z,45.62
2023-05-06T15:15:37.565Z,43.69
2023-05-06T15:18:13.605Z,44.44
2023-05-06T15:20:40.077Z,46.08
2023-05-06T15:23:06.570Z,44.37
2023-05-06T15:25:36.025Z,45.06
2023-05-06T15:28:04.602Z,46.08
2023-05-06T15:30:31.078Z,46.21
2023-05-06T15:32:57.484Z,46.57
2023-05-06T15:35:24.049Z,46.98
2023-05-06T15:37:55.845Z,45.31
2023-05-06T15:40:25.518Z,46.81
2023-05-06T15:42:52.473Z,47.77
2023-05-06T15:45:19.802Z,47.73
2023-05-06T15:47:48.056Z,46.86
2023-05-06T15:50:25.199Z,46.86
2023-05-06T15:52:58.777Z,46.53
2023-05-06T15:55:26.608Z,47.80
2023-05-06T15:57:54.567Z,46.58
2023-05-06T16:00:21.951Z,47.48
2023-05-06T16:02:48.687Z,48.91
2023-05-06T16:05:15.790Z,48.22
2023-05-06T16:07:42.457Z,46.98
2023-05-06T16:10:08.921Z,46.78
2023-05-06T16:12:35.631Z,46.50
2023-05-06T16:15:03.357Z,47.57
2023-05-06T16:17:30.402Z,47.87
2023-05-06T16:19:56.934Z,49.80
2023-05-06T16:22:23.406Z,49.46
2023-05-06T16:24:49.827Z,48.77
2023-05-06T16:27:16.427Z,47.53
2023-05-06T16:29:43.037Z,47.67
2023-05-06T16:32:09.554Z,48.96
2023-05-06T16:34:38.964Z,47.89
2023-05-06T16:37:07.911Z,46.88
2023-05-06T16:39:34.440Z,47.85
2023-05-06T16:42:01.842Z,47.88
2023-05-06T16:44:29.311Z,47.72
2023-05-06T16:46:56.083Z,48.45
2023-05-06T16:49:22.566Z,48.79
2023-05-06T16:51:49.108Z,49.70
2023-05-06T16:54:15.657Z,48.68
2023-05-06T16:59:22.754Z,49.19
2023-05-06T17:01:50.396Z,50.08
2023-05-06T17:04:20.479Z,49.95
2023-05-06T17:06:46.986Z,51.16
2023-05-06T17:09:13.472Z,51.00
2023-05-06T17:11:39.845Z,52.50
2023-05-06T17:14:06.520Z,51.74
2023-05-06T17:16:33.045Z,52.26
2023-05-06T17:18:59.560Z,52.26
2023-05-06T17:21:26.849Z,52.45
2023-05-06T17:23:54.477Z,52.72
2023-05-06T17:26:21.693Z,52.56
2023-05-06T17:28:48.316Z,53.89
2023-05-06T17:31:15.689Z,53.47
2023-05-06T17:33:42.444Z,53.71
2023-05-06T17:36:09.148Z,54.92
2023-05-06T17:38:35.825Z,54.16
2023-05-06T17:41:02.211Z,54.57
2023-05-06T17:43:28.878Z,55.54
2023-05-06T17:45:56.123Z,56.98
2023-05-06T17:48:23.004Z,58.36
2023-05-06T17:50:49.414Z,60.62
2023-05-06T17:53:16.101Z,61.77
2023-05-06T17:55:42.829Z,62.65
2023-05-06T17:58:09.290Z,63.82
2023-05-06T18:00:36.853Z,65.40
2023-05-06T18:03:03.379Z,66.40
2023-05-06T18:05:30.137Z,67.07
2023-05-06T18:07:56.700Z,68.18
2023-05-06T18:10:23.144Z,69.06
2023-05-06T18:12:49.960Z,70.16
2023-05-06T18:15:16.757Z,71.05
2023-05-06T18:17:43.337Z,72.61
2023-05-06T18:20:10.317Z,72.95
2023-05-06T18:22:37.152Z,73.00
2023-05-06T18:25:04.380Z,73.59
2023-05-06T18:27:32.302Z,73.48
2023-05-06T18:29:59.537Z,74.28
2023-05-06T18:32:26.108Z,74.58
2023-05-06T18:34:52.649Z,74.50
2023-05-06T18:37:19.083Z,75.28
2023-05-06T18:39:45.840Z,75.23
2023-05-06T18:42:12.221Z,74.96
2023-05-06T18:44:38.648Z,75.30
2023-05-06T18:47:05.811Z,75.70
2023-05-06T18:49:32.255Z,75.70
2023-05-06T18:51:58.855Z,76.31
2023-05-06T18:54:25.353Z,77.23
2023-05-06T18:56:51.897Z,77.33
2023-05-06T18:59:21.736Z,77.39
2023-05-06T19:01:48.458Z,77.84
2023-05-06T19:04:15.149Z,78.27
2023-05-06T19:06:41.792Z,78.30
2023-05-06T19:09:08.335Z,78.38
2023-05-06T19:11:35.043Z,78.09
2023-05-06T19:14:01.568Z,78.75
2023-05-06T19:16:28.050Z,78.93
2023-05-06T19:18:54.494Z,79.22
2023-05-06T19:21:21.694Z,79.47
2023-05-06T19:23:48.219Z,79.72
2023-05-06T19:26:14.815Z,79.96
2023-05-06T19:28:41.369Z,80.23
2023-05-06T19:31:11.886Z,80.26
2023-05-06T19:33:39.221Z,80.19
2023-05-06T19:36:06.403Z,79.90
2023-05-06T19:38:33.031Z,79.75
2023-05-06T19:40:59.526Z,79.95
2023-05-06T19:43:26.001Z,80.03
2023-05-06T19:45:52.611Z,80.42
2023-05-06T19:48:19.707Z,81.02
2023-05-06T19:50:46.328Z,81.13
2023-05-06T19:53:12.811Z,81.24
2023-05-06T19:55:39.245Z,80.94
2023-05-06T19:58:05.980Z,81.78
2023-05-06T20:00:32.521Z,81.83
2023-05-06T20:03:00.207Z,82.30
2023-05-06T20:05:32.023Z,82.44
2023-05-06T20:07:59.966Z,82.46
2023-05-06T20:10:28.021Z,82.86
2023-05-06T20:12:57.335Z,82.64
2023-05-06T20:15:24.484Z,82.76
2023-05-06T20:17:50.928Z,83.04
2023-05-06T20:20:17.678Z,83.20
2023-05-06T20:22:44.138Z,83.23
2023-05-06T20:25:13.028Z,83.55
2023-05-06T20:27:39.787Z,83.87
2023-05-06T20:30:08.268Z,83.97
2023-05-06T20:32:35.460Z,83.89
2023-05-06T20:35:01.982Z,83.59
2023-05-06T20:37:29.403Z,83.78
2023-05-06T20:39:56.177Z,83.46
2023-05-06T20:42:22.781Z,83.72
2023-05-06T20:44:51.030Z,83.76
2023-05-06T20:47:18.287Z,84.04
2023-05-06T20:49:44.873Z,84.20
2023-05-06T20:52:14.509Z,84.04
2023-05-06T20:54:45.259Z,84.66
2023-05-06T20:57:14.080Z,84.90
2023-05-06T20:59:40.800Z,85.14
2023-05-06T21:02:07.274Z,85.07
2023-05-06T21:04:33.872Z,85.22
2023-05-06T21:07:00.620Z,85.02
2023-05-06T21:09:29.148Z,85.80
2023-05-06T21:11:56.355Z,85.74
2023-05-06T21:14:24.746Z,86.21
2023-05-06T21:16:52.414Z,86.77
2023-05-06T21:19:19.693Z,87.00
2023-05-06T21:21:46.178Z,86.97
2023-05-06T21:24:13.124Z,86.76
2023-05-06T21:26:40.099Z,86.70
2023-05-06T21:29:06.694Z,86.58
2023-05-06T21:31:33.158Z,86.65
2023-05-06T21:33:59.867Z,86.66
2023-05-06T21:36:27.131Z,86.60
2023-05-06T21:39:05.593Z,86.52
2023-05-06T21:41:31.955Z,86.05
2023-05-06T21:43:58.456Z,86.28
2023-05-06T21:46:25.057Z,87.26
2023-05-06T21:48:52.003Z,87.16
2023-05-06T21:51:18.388Z,87.92
2023-05-06T21:53:49.194Z,88.68
2023-05-06T21:56:16.319Z,89.00
2023-05-06T21:58:42.798Z,88.97
2023-05-06T22:01:09.447Z,89.37
2023-05-06T22:03:36.113Z,89.87
2023-05-06T22:06:05.982Z,90.26
2023-05-06T22:08:32.494Z,90.54
2023-05-06T22:10:58.936Z,91.06
2023-05-06T22:13:26.713Z,91.39
2023-05-06T22:15:53.864Z,91.70
2023-05-06T22:18:20.441Z,92.01
2023-05-06T22:20:49.269Z,92.35
2023-05-06T22:23:15.760Z,92.36
2023-05-06T22:25:42.135Z,92.32
2023-05-06T22:28:08.522Z,92.41
2023-05-06T22:30:35.066Z,92.13
2023-05-06T22:33:01.760Z,91.96
2023-05-06T22:35:28.393Z,92.18
2023-05-06T22:37:54.760Z,91.27
2023-05-06T22:40:21.316Z,90.82
2023-05-06T22:42:48.356Z,90.09
2023-05-06T22:45:14.773Z,90.16
2023-05-06T22:47:41.260Z,89.95
2023-05-06T22:50:08.111Z,90.03
2023-05-06T22:52:34.688Z,90.05
2023-05-06T22:55:01.161Z,90.02
2023-05-06T22:57:27.658Z,90.32
2023-05-06T22:59:54.287Z,90.33
2023-05-06T23:02:20.816Z,90.65
2023-05-06T23:04:47.302Z,90.94
2023-05-06T23:07:14.198Z,91.09
2023-05-06T23:09:40.806Z,91.09
2023-05-06T23:12:07.772Z,91.09
2023-05-06T23:14:34.299Z,91.41
2023-05-06T23:17:00.730Z,91.55
2023-05-06T23:19:27.227Z,91.90
2023-05-06T23:21:53.768Z,92.50
2023-05-06T23:24:20.169Z,92.80
2023-05-06T23:26:46.608Z,93.03
2023-05-06T23:29:13.130Z,92.77
2023-05-06T23:31:39.721Z,92.97
2023-05-06T23:34:06.446Z,93.04
2023-05-06T23:36:34.037Z,93.26
2023-05-06T23:39:00.764Z,93.53
2023-05-06T23:41:27.659Z,93.73
2023-05-06T23:43:54.231Z,92.95
2023-05-06T23:46:20.878Z,92.99
2023-05-06T23:48:47.353Z,93.04
2023-05-06T23:51:13.783Z,92.72
2023-05-06T23:53:40.850Z,92.55
2023-05-06T23:56:07.491Z,92.51
2023-05-06T23:58:34.044Z,92.49
